ChileFixed distance
70kms Ultramaraton Lican Ray - Villarrica
5 Jan2014
Distance
70km
Finishers
4034 men6 women
Winning time
5:59:43h
Median pace
8.58km/h
Pace distribution
40 finishers · 6.25–11.68 km/h · mean 8.54
Every finisher ran the same 70 km course, so these paces are directly comparable.
Histogram of finisher pace. 40 finishers ranged from 6.25 to 11.68 kilometres per hour, with a mean of 8.54 and a median of 8.58. The busiest band is 9.0 to 9.5 kilometres per hour, with 8 finishers.
Results
Ranks 1–40 of 40
| Rank | Runner | Time | Pace | Cat. | Placing |
|---|---|---|---|---|---|
| 1 | *Villarrica | 5:59:43h | 11.68 | M23 | 1st M · 1st M23 |
| 2 | Maipu Runners | 6:06:15h | 11.47 | M40 | 2nd M · 1st M40 |
| 3 | Libertorunner | 6:33:55h | 10.66 | M40 | 3rd M · 2nd M40 |
| 4 | Road Runners | 6:40:30h | 10.49 | M23 | 4th M · 2nd M23 |
| 5 | *Santiago | 6:44:15h | 10.39 | M40 | 5th M · 3rd M40 |
| 6 | Unab | 7:02:32h | 9.94 | M23 | 6th M · 3rd M23 |
| 7 | *Temuco | 7:04:25h | 9.90 | W40 | 1st F · 1st W40 |
| 8 | *Panguipulli | 7:26:31h | 9.41 | M35 | 7th M · 1st M35 |
| 9 | Oscar Gonzalez | 7:30:09h | 9.33 | M23 | 8th M · 4th M23 |
| 10 | *Santiago | 7:30:09h | 9.33 | M35 | 8th M · 2nd M35 |
| 11 | *Santiago | 7:35:27h | 9.22 | M35 | 10th M · 3rd M35 |
| 12 | Rompiendo Limites | 7:36:30h | 9.20 | W23 | 2nd F · 1st W23 |
| 13 | Rompiendo Limites | 7:36:30h | 9.20 | M23 | 11th M · 5th M23 |
| 14 | Buses Curacautin Express | 7:39:41h | 9.14 | M50 | 12th M · 1st M50 |
| 15 | *Santiago | 7:45:26h | 9.02 | M23 | 13th M · 6th M23 |
| 16 | Club Running Chile | 7:47:36h | 8.98 | M45 | 14th M · 1st M45 |
| 17 | Club Running Chile | 7:47:36h | 8.98 | M45 | 14th M · 1st M45 |
| 18 | Route | 7:50:46h | 8.92 | M55 | 16th M · 1st M55 |
| 19 | Running Licanray | 7:59:34h | 8.76 | M40 | 17th M · 4th M40 |
| 20 | Corre.Mana | 8:05:45h | 8.65 | M23 | 18th M · 7th M23 |
| 21 | Curicorre | 8:09:44h | 8.58 | M45 | 19th M · 3rd M45 |
| 22 | Lican Ray Trail Run | 8:29:17h | 8.25 | M35 | 20th M · 4th M35 |
| 23 | *Iquique | 8:33:35h | 8.18 | M23 | 21st M · 8th M23 |
| 24 | Concerunning | 8:33:36h | 8.18 | M45 | 22nd M · 4th M45 |
| 25 | Concepcion Runners | 8:40:27h | 8.07 | M55 | 23rd M · 2nd M55 |
| 26 | *Temuco | 8:41:05h | 8.06 | M40 | 24th M · 5th M40 |
| 27 | Route | 8:52:44h | 7.88 | M40 | 25th M · 6th M40 |
| 28 | Corre.Mania | 8:56:42h | 7.83 | M23 | 26th M · 9th M23 |
| 29 | Top Runners Team | 8:57:02h | 7.82 | W23 | 3rd F · 2nd W23 |
| 30 | Tnf Running | 9:07:29h | 7.67 | M35 | 27th M · 5th M35 |
| 31 | *Talagante | 9:10:58h | 7.62 | M23 | 28th M · 10th M23 |
| 32 | *Rancagua | 9:27:49h | 7.40 | W40 | 4th F · 2nd W40 |
| 33 | Rpm | 9:37:08h | 7.28 | M23 | 29th M · 11th M23 |
| 34 | *Bromma | 9:41:55h | 7.22 | W35 | 5th F · 1st W35 |
| 35 | *Santiago | 9:59:02h | 7.01 | M35 | 30th M · 6th M35 |
| 36 | *Concepción | 10:11:12h | 6.87 | M23 | 31st M · 12th M23 |
| 37 | Talcahuano Runners | 11:07:42h | 6.29 | M40 | 32nd M · 7th M40 |
| 38 | Rancagua Runners | 11:08:06h | 6.29 | W45 | 6th F · 1st W45 |
| 39 | *Santiago | 11:12:12h | 6.25 | M50 | 33rd M · 2nd M50 |
| 40 | *Rancagua | 11:12:12h | 6.25 | M55 | 33rd M · 3rd M55 |
- 1*Villarrica1st M · 1st M23Time5:59:43hPace11.68Cat.M23
- 2Maipu Runners2nd M · 1st M40Time6:06:15hPace11.47Cat.M40
- 3Libertorunner3rd M · 2nd M40Time6:33:55hPace10.66Cat.M40
- 4Road Runners4th M · 2nd M23Time6:40:30hPace10.49Cat.M23
- 5*Santiago5th M · 3rd M40Time6:44:15hPace10.39Cat.M40
- 6Unab6th M · 3rd M23Time7:02:32hPace9.94Cat.M23
- 7*Temuco1st F · 1st W40Time7:04:25hPace9.90Cat.W40
- 8*Panguipulli7th M · 1st M35Time7:26:31hPace9.41Cat.M35
- 9Oscar Gonzalez8th M · 4th M23Time7:30:09hPace9.33Cat.M23
- 10*Santiago8th M · 2nd M35Time7:30:09hPace9.33Cat.M35
- 11*Santiago10th M · 3rd M35Time7:35:27hPace9.22Cat.M35
- 12Rompiendo Limites2nd F · 1st W23Time7:36:30hPace9.20Cat.W23
- 13Rompiendo Limites11th M · 5th M23Time7:36:30hPace9.20Cat.M23
- 14Buses Curacautin Express12th M · 1st M50Time7:39:41hPace9.14Cat.M50
- 15*Santiago13th M · 6th M23Time7:45:26hPace9.02Cat.M23
- 16Club Running Chile14th M · 1st M45Time7:47:36hPace8.98Cat.M45
- 17Club Running Chile14th M · 1st M45Time7:47:36hPace8.98Cat.M45
- 18Route16th M · 1st M55Time7:50:46hPace8.92Cat.M55
- 19Running Licanray17th M · 4th M40Time7:59:34hPace8.76Cat.M40
- 20Corre.Mana18th M · 7th M23Time8:05:45hPace8.65Cat.M23
- 21Curicorre19th M · 3rd M45Time8:09:44hPace8.58Cat.M45
- 22Lican Ray Trail Run20th M · 4th M35Time8:29:17hPace8.25Cat.M35
- 23*Iquique21st M · 8th M23Time8:33:35hPace8.18Cat.M23
- 24Concerunning22nd M · 4th M45Time8:33:36hPace8.18Cat.M45
- 25Concepcion Runners23rd M · 2nd M55Time8:40:27hPace8.07Cat.M55
- 26*Temuco24th M · 5th M40Time8:41:05hPace8.06Cat.M40
- 27Route25th M · 6th M40Time8:52:44hPace7.88Cat.M40
- 28Corre.Mania26th M · 9th M23Time8:56:42hPace7.83Cat.M23
- 29Top Runners Team3rd F · 2nd W23Time8:57:02hPace7.82Cat.W23
- 30Tnf Running27th M · 5th M35Time9:07:29hPace7.67Cat.M35
- 31*Talagante28th M · 10th M23Time9:10:58hPace7.62Cat.M23
- 32*Rancagua4th F · 2nd W40Time9:27:49hPace7.40Cat.W40
- 33Rpm29th M · 11th M23Time9:37:08hPace7.28Cat.M23
- 34*Bromma5th F · 1st W35Time9:41:55hPace7.22Cat.W35
- 35*Santiago30th M · 6th M35Time9:59:02hPace7.01Cat.M35
- 36*Concepción31st M · 12th M23Time10:11:12hPace6.87Cat.M23
- 37Talcahuano Runners32nd M · 7th M40Time11:07:42hPace6.29Cat.M40
- 38Rancagua Runners6th F · 1st W45Time11:08:06hPace6.29Cat.W45
- 39*Santiago33rd M · 2nd M50Time11:12:12hPace6.25Cat.M50
- 40*Rancagua33rd M · 3rd M55Time11:12:12hPace6.25Cat.M55